Hauptseite
Satellitenwetter 15-Tage PrognosenKlimaSeewetter Wirbelstürme Blitz FlughäfenFAQ Newsletter Über uns
Wetter : Europa Afrika Nordamerika Südamerika Asien Australien-Ozeanien Andere
Sprachen Kontakt

Newquay Cornwall, England

Breite: 50-26N, Länge: 005-00W, Höhe: 119 m


METAR: EGHQ 221250Z 31010KT 9999 BKN046 19/18 Q1024
short-TAF: EGHQ 221057Z 2212/2221 33005KT 9999 FEW015 SCT035 PROB30 TEMPO 2220/2221 7000 BKN005
long-TAF: fehlend

Zeit: 14:23 (13:23 UTC)

Beobachtung

Neuester Wetterbericht von vor 33 Minuten, um 12:50 UTC  
Wind 10 kt aus Nordwest
Temperatur 19°C
Luftfeuchtigkeit 94%
Luftdruck 1024 hPa
Sichtweite 10 km oder mehr
Durchbrochene Bewölkung in der Höhe von 4600 ft

Maßeinheiten ändern

Prognose

Neuester Wetterbericht von vor 2 Stunden und 10 Minuten, um 11:13 UTC  
Gültige Prognose vom 22 um 12 UTC bis 22 um 21 UTC
Wind 05 kt aus Nord/Nordwest
Sichtweite 10 km oder mehr
leicht bewölkt in der Höhe von 1500 ft
Aufgelockert bewölkt in der Höhe von 3500 ft
Wahrscheinlichkeit 30% :
Zeitweise
vom 22 um 20 UTC bis 22 um 21 UTC
Sichtweite 7000 m
Durchbrochene Bewölkung in der Höhe von 500 ft
Die Angaben auf diesen Webseiten unterliegen einer Erklärung über den Haftungsausschluss
Wetter : Europa Afrika Nordamerika Südamerika Asien Australien-Ozeanien Andere
Satellitenwetter 15-Tage PrognosenKlimaSeewetter Wirbelstürme Blitz FlughäfenFAQ Sprachen Kontakt Newsletter Über uns